createdAt,value
2023-02-07T00:00:41.906Z,-6.32
2023-02-07T00:03:08.856Z,-6.55
2023-02-07T00:05:36.876Z,-6.55
2023-02-07T00:08:04.784Z,-6.48
2023-02-07T00:10:31.536Z,-6.39
2023-02-07T00:12:58.940Z,-6.24
2023-02-07T00:15:25.749Z,-6.28
2023-02-07T00:17:52.425Z,-6.70
2023-02-07T00:20:19.313Z,-7.00
2023-02-07T00:22:45.957Z,-6.61
2023-02-07T00:25:12.895Z,-6.56
2023-02-07T00:27:39.586Z,-6.42
2023-02-07T00:30:06.837Z,-6.44
2023-02-07T00:32:35.104Z,-6.78
2023-02-07T00:35:02.037Z,-6.48
2023-02-07T00:37:28.721Z,-6.75
2023-02-07T00:39:55.358Z,-6.72
2023-02-07T00:42:21.960Z,-6.89
2023-02-07T00:44:48.628Z,-6.77
2023-02-07T00:47:15.230Z,-7.03
2023-02-07T00:49:41.881Z,-7.05
2023-02-07T00:52:08.459Z,-6.86
2023-02-07T00:54:35.645Z,-7.08
2023-02-07T00:57:02.288Z,-6.82
2023-02-07T00:59:28.906Z,-7.01
2023-02-07T01:01:55.549Z,-7.09
2023-02-07T01:04:22.205Z,-7.43
2023-02-07T01:06:48.874Z,-7.09
2023-02-07T01:09:15.593Z,-7.70
2023-02-07T01:11:42.220Z,-7.45
2023-02-07T01:14:09.219Z,-7.84
2023-02-07T01:16:37.086Z,-7.60
2023-02-07T01:19:07.486Z,-7.75
2023-02-07T01:21:34.706Z,-7.91
2023-02-07T01:24:03.259Z,-7.61
2023-02-07T01:26:30.006Z,-7.83
2023-02-07T01:28:56.689Z,-7.46
2023-02-07T01:31:25.624Z,-7.47
2023-02-07T01:33:56.856Z,-7.60
2023-02-07T01:36:26.163Z,-7.67
2023-02-07T01:38:54.157Z,-7.65
2023-02-07T01:41:21.772Z,-7.61
2023-02-07T01:44:02.242Z,-7.94
2023-02-07T01:46:31.339Z,-7.85
2023-02-07T01:49:02.495Z,-7.64
2023-02-07T01:51:31.807Z,-7.87
2023-02-07T01:54:03.269Z,-8.15
2023-02-07T01:56:32.169Z,-7.56
2023-02-07T01:59:04.411Z,-7.78
2023-02-07T02:01:31.144Z,-7.55
2023-02-07T02:03:58.482Z,-7.94
2023-02-07T02:06:29.238Z,-7.81
2023-02-07T02:08:59.409Z,-7.90
2023-02-07T02:11:38.212Z,-7.77
2023-02-07T02:14:20.089Z,-7.71
2023-02-07T02:17:06.248Z,-7.72
2023-02-07T02:19:32.795Z,-7.80
2023-02-07T02:22:20.521Z,-8.26
2023-02-07T02:24:53.235Z,-8.04
2023-02-07T02:27:19.828Z,-8.16
2023-02-07T02:30:30.653Z,-8.31
2023-02-07T02:33:06.729Z,-8.99
2023-02-07T02:35:46.475Z,-8.30
2023-02-07T02:38:27.035Z,-8.15
2023-02-07T02:41:12.658Z,-8.23
2023-02-07T02:43:46.537Z,-8.28
2023-02-07T02:46:34.765Z,-8.60
2023-02-07T02:49:05.002Z,-8.31
2023-02-07T02:51:32.785Z,-8.31
2023-02-07T02:54:00.679Z,-8.48
2023-02-07T02:57:06.401Z,-8.40
2023-02-07T02:59:55.430Z,-8.34
2023-02-07T03:02:43.386Z,-8.68
2023-02-07T03:05:48.649Z,-8.39
2023-02-07T03:08:25.827Z,-8.63
2023-02-07T03:11:13.208Z,-8.50
2023-02-07T03:13:52.022Z,-8.54
2023-02-07T03:16:34.574Z,-8.70
2023-02-07T03:19:13.412Z,-9.00
2023-02-07T03:21:54.641Z,-9.03
2023-02-07T03:24:29.216Z,-8.96
2023-02-07T03:27:01.042Z,-9.29
2023-02-07T03:29:30.859Z,-8.97
2023-02-07T03:32:00.683Z,-8.92
2023-02-07T03:34:38.022Z,-9.04
2023-02-07T03:37:12.970Z,-8.75
2023-02-07T03:39:39.721Z,-9.10
2023-02-07T03:42:22.284Z,-8.95
2023-02-07T03:44:50.825Z,-9.14
2023-02-07T03:47:18.628Z,-9.11
2023-02-07T03:49:45.751Z,-9.04
2023-02-07T03:52:12.336Z,-9.58
2023-02-07T03:54:38.946Z,-9.10
2023-02-07T03:57:05.585Z,-9.35
2023-02-07T03:59:32.292Z,-9.20
2023-02-07T04:02:00.508Z,-9.39
2023-02-07T04:04:27.196Z,-9.51
2023-02-07T04:06:53.885Z,-9.61
2023-02-07T04:09:20.869Z,-9.56
2023-02-07T04:11:51.653Z,-9.39
2023-02-07T04:14:20.241Z,-9.93
2023-02-07T04:16:48.321Z,-9.82
2023-02-07T04:19:15.483Z,-9.66
2023-02-07T04:21:42.448Z,-9.69
2023-02-07T04:24:09.356Z,-9.39
2023-02-07T04:26:35.988Z,-9.52
2023-02-07T04:29:02.644Z,-9.87
2023-02-07T04:31:29.415Z,-9.96
2023-02-07T04:33:56.055Z,-9.95
2023-02-07T04:36:22.952Z,-9.58
2023-02-07T04:38:49.857Z,-10.01
2023-02-07T04:41:16.910Z,-9.91
2023-02-07T04:43:43.573Z,-10.04
2023-02-07T04:46:10.308Z,-9.72
2023-02-07T04:48:37.861Z,-9.86
2023-02-07T04:51:05.790Z,-9.72
2023-02-07T04:53:33.009Z,-10.32
2023-02-07T04:55:59.627Z,-9.99
2023-02-07T04:58:26.772Z,-9.83
2023-02-07T05:00:54.438Z,-9.88
2023-02-07T05:03:21.501Z,-10.02
2023-02-07T05:05:48.207Z,-10.07
2023-02-07T05:08:15.003Z,-10.65
2023-02-07T05:10:41.818Z,-10.11
2023-02-07T05:13:08.509Z,-10.60
2023-02-07T05:15:36.095Z,-10.66
2023-02-07T05:18:03.088Z,-10.43
2023-02-07T05:20:29.701Z,-10.77
2023-02-07T05:22:56.398Z,-10.29
2023-02-07T05:25:23.301Z,-10.38
2023-02-07T05:27:50.023Z,-10.36
2023-02-07T05:30:16.915Z,-10.53
2023-02-07T05:33:02.082Z,-10.58
2023-02-07T05:35:28.982Z,-10.66
2023-02-07T05:37:55.612Z,-10.56
2023-02-07T05:40:24.267Z,-10.38
2023-02-07T05:42:52.388Z,-11.04
2023-02-07T05:45:20.054Z,-10.44
2023-02-07T05:47:46.683Z,-10.27
2023-02-07T05:50:14.202Z,-10.39
2023-02-07T05:52:40.910Z,-10.60
2023-02-07T05:55:08.179Z,-10.69
2023-02-07T05:57:35.321Z,-11.26
2023-02-07T06:00:02.257Z,-10.80
2023-02-07T06:02:41.741Z,-10.66
2023-02-07T06:05:11.202Z,-10.10
2023-02-07T06:07:38.161Z,-10.00
2023-02-07T06:10:06.027Z,-10.56
2023-02-07T06:12:33.707Z,-10.55
2023-02-07T06:15:01.000Z,-10.20
2023-02-07T06:17:27.781Z,-10.51
2023-02-07T06:19:54.493Z,-10.82
2023-02-07T06:22:21.119Z,-10.44
2023-02-07T06:24:47.767Z,-10.39
2023-02-07T06:27:14.382Z,-10.38
2023-02-07T06:29:41.022Z,-10.53
2023-02-07T06:32:07.700Z,-10.35
2023-02-07T06:34:34.382Z,-10.74
2023-02-07T06:37:00.957Z,-11.36
2023-02-07T06:39:27.565Z,-10.87
2023-02-07T06:41:54.143Z,-10.59
2023-02-07T06:44:20.767Z,-10.93
2023-02-07T06:46:47.499Z,-10.40
2023-02-07T06:49:14.174Z,-10.55
2023-02-07T06:51:40.759Z,-10.54
2023-02-07T06:54:09.920Z,-10.65
2023-02-07T06:56:37.649Z,-10.78
2023-02-07T06:59:04.759Z,-11.09
2023-02-07T07:01:31.867Z,-10.84
2023-02-07T07:03:58.681Z,-10.78
2023-02-07T07:06:25.280Z,-11.14
2023-02-07T07:08:52.057Z,-10.98
2023-02-07T07:11:19.304Z,-11.01
2023-02-07T07:13:46.862Z,-10.79
2023-02-07T07:16:13.821Z,-10.79
2023-02-07T07:18:40.666Z,-10.48
2023-02-07T07:21:07.976Z,-10.40
2023-02-07T07:23:34.605Z,-10.40
2023-02-07T07:26:01.376Z,-10.53
2023-02-07T07:28:28.027Z,-10.12
2023-02-07T07:30:54.677Z,-10.29
2023-02-07T07:33:21.295Z,-10.47
2023-02-07T07:35:47.894Z,-10.16
2023-02-07T07:38:14.625Z,-10.29
2023-02-07T07:40:41.327Z,-10.00
2023-02-07T07:43:07.980Z,-9.98
2023-02-07T07:45:44.157Z,-9.76
2023-02-07T07:48:10.793Z,-10.20
2023-02-07T07:50:37.747Z,-9.69
2023-02-07T07:53:04.765Z,-10.10
2023-02-07T07:55:31.308Z,-9.79
2023-02-07T07:57:58.010Z,-9.59
2023-02-07T08:00:24.656Z,-9.39
2023-02-07T08:02:51.596Z,-9.49
2023-02-07T08:05:18.391Z,-8.91
2023-02-07T08:07:45.051Z,-8.87
2023-02-07T08:10:11.664Z,-8.89
2023-02-07T08:12:38.340Z,-9.04
2023-02-07T08:15:07.718Z,-9.00
2023-02-07T08:17:34.346Z,-8.48
2023-02-07T08:20:00.934Z,-8.65
2023-02-07T08:22:27.725Z,-8.56
2023-02-07T08:24:54.366Z,-8.44
2023-02-07T08:27:20.967Z,-8.29
2023-02-07T08:29:47.579Z,-8.61
2023-02-07T08:32:14.451Z,-8.48
2023-02-07T08:34:41.054Z,-8.26
2023-02-07T08:37:08.982Z,-8.18
2023-02-07T08:39:36.022Z,-8.12
2023-02-07T08:42:05.281Z,-7.72
2023-02-07T08:44:32.391Z,-7.92
2023-02-07T08:46:59.070Z,-7.73
2023-02-07T08:49:25.961Z,-7.89
2023-02-07T08:51:52.865Z,-7.86
2023-02-07T08:54:19.781Z,-7.74
2023-02-07T08:56:46.420Z,-7.49
2023-02-07T08:59:12.997Z,-7.26
2023-02-07T09:01:39.932Z,-7.49
2023-02-07T09:04:06.567Z,-7.19
2023-02-07T09:06:33.336Z,-7.47
2023-02-07T09:08:59.924Z,-7.45
2023-02-07T09:11:26.777Z,-7.27
2023-02-07T09:13:53.457Z,-7.42
2023-02-07T09:16:20.207Z,-6.90
2023-02-07T09:18:46.950Z,-6.94
2023-02-07T09:21:13.823Z,-6.77
2023-02-07T09:23:40.601Z,-6.65
2023-02-07T09:26:09.371Z,-6.97
2023-02-07T09:28:36.217Z,-6.66
2023-02-07T09:31:08.935Z,-6.54
2023-02-07T09:33:35.697Z,-6.65
2023-02-07T09:36:02.517Z,-6.40
2023-02-07T09:38:29.340Z,-6.75
2023-02-07T09:40:57.877Z,-6.03
2023-02-07T09:43:55.922Z,-6.18
2023-02-07T09:46:32.350Z,-6.24
2023-02-07T09:49:33.428Z,-6.09
2023-02-07T09:52:01.952Z,-5.90
2023-02-07T09:54:37.315Z,-5.97
2023-02-07T09:57:08.419Z,-6.04
2023-02-07T09:59:43.030Z,-5.65
2023-02-07T10:02:41.764Z,-6.22
2023-02-07T10:05:20.632Z,-5.74
2023-02-07T10:07:48.886Z,-5.30
2023-02-07T10:10:33.947Z,-5.24
2023-02-07T10:13:35.745Z,-5.18
2023-02-07T10:16:36.301Z,-4.69
2023-02-07T10:19:19.283Z,-4.61
2023-02-07T10:22:23.193Z,-4.38
2023-02-07T10:25:05.016Z,-4.04
2023-02-07T10:27:48.371Z,-4.01
2023-02-07T10:30:27.052Z,-4.23
2023-02-07T10:32:59.997Z,-3.82
2023-02-07T10:35:36.457Z,-3.58
2023-02-07T10:38:04.643Z,-3.48
2023-02-07T10:40:41.512Z,-3.42
2023-02-07T10:43:21.306Z,-3.45
2023-02-07T10:45:51.913Z,-3.49
2023-02-07T10:48:21.001Z,-3.29
2023-02-07T10:50:48.269Z,-3.31
2023-02-07T10:53:54.942Z,-3.28
2023-02-07T10:56:24.528Z,-3.01
2023-02-07T10:58:51.404Z,-3.15
2023-02-07T11:01:21.340Z,-2.74
2023-02-07T11:03:48.719Z,-2.78
2023-02-07T11:06:24.099Z,-2.91
2023-02-07T11:08:50.931Z,-2.65
2023-02-07T11:11:32.742Z,-3.08
2023-02-07T11:14:04.925Z,-2.40
2023-02-07T11:16:31.707Z,-2.25
2023-02-07T11:19:00.783Z,-2.36
2023-02-07T11:21:33.576Z,-2.13
2023-02-07T11:24:12.391Z,-1.96
2023-02-07T11:27:09.925Z,-1.98
2023-02-07T11:29:58.593Z,-1.82
2023-02-07T11:32:27.420Z,-1.88
2023-02-07T11:35:05.839Z,-2.32
2023-02-07T11:37:38.030Z,-2.26
2023-02-07T11:40:39.631Z,-2.00
2023-02-07T11:43:09.728Z,-1.97
2023-02-07T11:45:41.108Z,-2.30
2023-02-07T11:48:17.221Z,-1.77
2023-02-07T11:50:47.550Z,-1.49
2023-02-07T11:53:24.547Z,-1.94
2023-02-07T11:55:54.550Z,-1.61
2023-02-07T11:58:23.801Z,-1.23
2023-02-07T12:00:50.800Z,-1.74
2023-02-07T12:03:22.641Z,-1.63
2023-02-07T12:05:53.470Z,-1.31
2023-02-07T12:08:24.261Z,-1.29
2023-02-07T12:11:36.167Z,-1.32
2023-02-07T12:14:28.420Z,-1.24
2023-02-07T12:16:58.940Z,-1.33
2023-02-07T12:19:34.065Z,-1.04
2023-02-07T12:22:06.845Z,-0.72
2023-02-07T12:24:45.341Z,-0.45
2023-02-07T12:27:16.717Z,-0.69
2023-02-07T12:29:46.406Z,-0.22
2023-02-07T12:32:36.904Z,-1.12
2023-02-07T12:35:34.868Z,-0.93
2023-02-07T12:38:25.644Z,-1.06
2023-02-07T12:41:14.918Z,-0.45
2023-02-07T12:43:55.913Z,-0.10
2023-02-07T12:46:39.146Z,0.16
2023-02-07T12:49:23.480Z,0.28
2023-02-07T12:52:15.983Z,1.12
2023-02-07T12:55:04.313Z,1.18
2023-02-07T12:57:43.074Z,1.48
2023-02-07T13:00:26.268Z,1.59
2023-02-07T13:03:23.511Z,0.97
2023-02-07T13:06:05.441Z,1.19
2023-02-07T13:08:53.324Z,2.07
2023-02-07T13:11:32.133Z,1.43
2023-02-07T13:14:39.262Z,1.08
2023-02-07T13:17:34.056Z,1.64
2023-02-07T13:20:21.857Z,1.39
2023-02-07T13:23:02.547Z,1.59
2023-02-07T13:25:35.584Z,2.37
2023-02-07T13:28:08.019Z,2.51
2023-02-07T13:30:35.740Z,3.81
2023-02-07T13:33:24.924Z,4.28
2023-02-07T13:35:54.321Z,4.47
2023-02-07T13:38:33.619Z,3.66
2023-02-07T13:41:16.443Z,2.72
2023-02-07T13:47:00.303Z,4.26
2023-02-07T13:49:46.583Z,3.97
2023-02-07T13:52:31.905Z,4.69
2023-02-07T13:55:34.386Z,3.50
2023-02-07T13:58:19.539Z,3.30
2023-02-07T14:00:56.012Z,3.26
2023-02-07T14:03:35.226Z,3.03
2023-02-07T14:06:26.296Z,3.07
2023-02-07T14:09:14.726Z,3.12
2023-02-07T14:11:47.278Z,3.38
2023-02-07T14:14:14.350Z,3.40
2023-02-07T14:16:47.771Z,2.57
2023-02-07T14:19:17.689Z,3.42
2023-02-07T14:21:44.721Z,3.38
2023-02-07T14:24:14.396Z,4.24
2023-02-07T14:26:40.986Z,3.39
2023-02-07T14:29:23.027Z,4.12
2023-02-07T14:31:56.312Z,3.85
2023-02-07T14:34:28.505Z,4.51
2023-02-07T14:36:55.338Z,3.24
2023-02-07T14:39:31.446Z,3.20
2023-02-07T14:42:11.296Z,2.90
2023-02-07T14:44:41.315Z,3.47
2023-02-07T14:47:16.794Z,3.08
2023-02-07T14:49:49.222Z,2.70
2023-02-07T14:52:42.452Z,2.70
2023-02-07T14:55:24.389Z,3.35
2023-02-07T14:57:57.576Z,2.94
2023-02-07T15:00:48.650Z,3.55
2023-02-07T15:03:20.065Z,3.69
2023-02-07T15:05:52.464Z,4.39
2023-02-07T15:08:20.419Z,3.08
2023-02-07T15:10:54.927Z,3.08
2023-02-07T15:13:43.308Z,2.40
2023-02-07T15:16:16.694Z,2.99
2023-02-07T15:18:49.417Z,2.33
2023-02-07T15:21:19.522Z,1.10
2023-02-07T15:23:55.711Z,0.75
2023-02-07T15:26:22.517Z,0.23
2023-02-07T15:28:57.526Z,-0.10
2023-02-07T15:31:24.320Z,-0.17
2023-02-07T15:33:55.010Z,-0.26
2023-02-07T15:36:35.764Z,-0.41
2023-02-07T15:39:06.839Z,-0.60
2023-02-07T15:41:34.573Z,-0.83
2023-02-07T15:44:04.148Z,-0.83
2023-02-07T15:46:52.937Z,-1.14
2023-02-07T15:49:33.279Z,-1.17
2023-02-07T15:52:05.343Z,-1.23
2023-02-07T15:54:38.300Z,-1.18
2023-02-07T15:57:11.274Z,-1.53
2023-02-07T15:59:41.467Z,-1.43
2023-02-07T16:02:37.823Z,-1.57
2023-02-07T16:05:20.208Z,-1.83
2023-02-07T16:07:48.638Z,-1.82
2023-02-07T16:10:37.167Z,-1.52
2023-02-07T16:13:24.056Z,-1.60
2023-02-07T16:15:59.648Z,-1.54
2023-02-07T16:18:45.832Z,-1.68
2023-02-07T16:21:14.091Z,-1.72
2023-02-07T16:23:41.529Z,-1.77
2023-02-07T16:26:08.691Z,-1.90
2023-02-07T16:28:35.424Z,-1.84
2023-02-07T16:31:02.281Z,-1.84
2023-02-07T16:33:28.999Z,-1.91
2023-02-07T16:35:55.682Z,-1.75
2023-02-07T16:38:22.329Z,-1.76
2023-02-07T16:40:49.416Z,-1.84
2023-02-07T16:43:37.429Z,-1.71
2023-02-07T16:46:05.065Z,-1.96
2023-02-07T16:48:32.172Z,-2.35
2023-02-07T16:50:59.247Z,-2.11
2023-02-07T16:53:25.972Z,-2.11
2023-02-07T16:55:53.961Z,-2.31
2023-02-07T16:58:26.787Z,-2.18
2023-02-07T17:00:54.322Z,-2.29
2023-02-07T17:03:22.058Z,-2.58
2023-02-07T17:05:49.128Z,-2.46
2023-02-07T17:08:25.205Z,-2.62
2023-02-07T17:10:56.480Z,-2.58
2023-02-07T17:13:23.180Z,-2.87
2023-02-07T17:15:49.908Z,-2.83
2023-02-07T17:18:16.732Z,-2.71
2023-02-07T17:20:43.625Z,-3.23
2023-02-07T17:23:10.363Z,-3.34
2023-02-07T17:25:37.058Z,-2.89
2023-02-07T17:28:03.924Z,-3.13
2023-02-07T17:30:38.282Z,-3.43
2023-02-07T17:33:05.942Z,-3.21
2023-02-07T17:35:33.751Z,-3.20
2023-02-07T17:38:00.652Z,-3.49
2023-02-07T17:40:39.309Z,-3.33
2023-02-07T17:43:07.514Z,-3.31
2023-02-07T17:45:36.083Z,-3.57
2023-02-07T17:48:03.916Z,-3.73
2023-02-07T17:50:36.852Z,-3.65
2023-02-07T17:53:04.192Z,-3.77
2023-02-07T17:55:31.756Z,-3.54
2023-02-07T17:57:58.666Z,-3.75
2023-02-07T18:00:28.723Z,-3.89
2023-02-07T18:02:55.724Z,-3.98
2023-02-07T18:05:22.938Z,-4.08
2023-02-07T18:07:51.247Z,-4.61
2023-02-07T18:10:25.510Z,-4.19
2023-02-07T18:12:52.193Z,-4.29
2023-02-07T18:15:19.891Z,-4.15
2023-02-07T18:17:48.375Z,-4.61
2023-02-07T18:20:29.359Z,-4.20
2023-02-07T18:22:57.689Z,-4.30
2023-02-07T18:25:25.837Z,-4.24
2023-02-07T18:27:54.255Z,-4.25
2023-02-07T18:30:24.149Z,-4.42
2023-02-07T18:32:50.904Z,-4.57
2023-02-07T18:35:21.443Z,-4.35
2023-02-07T18:37:48.126Z,-4.79
2023-02-07T18:40:15.967Z,-4.60
2023-02-07T18:42:43.306Z,-4.64
2023-02-07T18:45:10.460Z,-4.84
2023-02-07T18:47:37.131Z,-5.10
2023-02-07T18:50:04.300Z,-4.91
2023-02-07T18:52:31.060Z,-5.36
2023-02-07T18:54:57.899Z,-5.09
2023-02-07T18:57:24.605Z,-5.26
2023-02-07T18:59:51.404Z,-5.35
2023-02-07T19:02:18.183Z,-5.28
2023-02-07T19:04:47.014Z,-5.82
2023-02-07T19:07:14.010Z,-5.16
2023-02-07T19:09:40.768Z,-5.15
2023-02-07T19:12:09.818Z,-5.26
2023-02-07T19:14:37.218Z,-5.40
2023-02-07T19:17:03.928Z,-5.37
2023-02-07T19:19:31.796Z,-5.85
2023-02-07T19:21:58.557Z,-5.38
2023-02-07T19:24:25.679Z,-5.58
2023-02-07T19:26:56.087Z,-5.43
2023-02-07T19:29:28.707Z,-5.48
2023-02-07T19:32:07.397Z,-5.48
2023-02-07T19:34:35.664Z,-5.75
2023-02-07T19:37:02.543Z,-5.79
2023-02-07T19:39:29.665Z,-5.74
2023-02-07T19:41:56.641Z,-5.58
2023-02-07T19:44:23.271Z,-5.54
2023-02-07T19:46:49.940Z,-5.83
2023-02-07T19:49:16.641Z,-5.68
2023-02-07T19:51:43.503Z,-5.91
2023-02-07T19:54:10.631Z,-5.72
2023-02-07T19:56:37.660Z,-5.94
2023-02-07T19:59:06.093Z,-5.80
2023-02-07T20:01:34.785Z,-6.11
2023-02-07T20:04:01.794Z,-6.31
2023-02-07T20:06:32.896Z,-5.85
2023-02-07T20:09:02.342Z,-5.82
2023-02-07T20:11:29.388Z,-5.86
2023-02-07T20:14:02.782Z,-5.88
2023-02-07T20:16:32.959Z,-5.98
2023-02-07T20:18:59.866Z,-6.04
2023-02-07T20:21:28.741Z,-6.09
2023-02-07T20:23:56.711Z,-6.05
2023-02-07T20:26:26.916Z,-6.09
2023-02-07T20:28:53.950Z,-6.19
2023-02-07T20:31:24.343Z,-6.31
2023-02-07T20:33:51.099Z,-6.27
2023-02-07T20:36:19.327Z,-6.65
2023-02-07T20:38:47.258Z,-6.42
2023-02-07T20:41:28.934Z,-6.42
2023-02-07T20:44:04.284Z,-6.67
2023-02-07T20:46:34.126Z,-6.51
2023-02-07T20:49:22.560Z,-6.72
2023-02-07T20:51:51.742Z,-6.63
2023-02-07T20:54:21.097Z,-6.77
2023-02-07T20:56:47.794Z,-6.76
2023-02-07T20:59:20.525Z,-6.88
2023-02-07T21:01:47.541Z,-6.77
2023-02-07T21:04:14.146Z,-6.95
2023-02-07T21:06:44.973Z,-6.97
2023-02-07T21:09:13.015Z,-7.15
2023-02-07T21:11:44.714Z,-7.12
2023-02-07T21:14:15.601Z,-7.15
2023-02-07T21:16:42.748Z,-7.16
2023-02-07T21:19:09.703Z,-7.20
2023-02-07T21:21:36.437Z,-7.45
2023-02-07T21:24:03.103Z,-7.17
2023-02-07T21:26:29.900Z,-7.52
2023-02-07T21:29:01.466Z,-7.30
2023-02-07T21:31:29.840Z,-7.15
2023-02-07T21:33:57.298Z,-7.34
2023-02-07T21:36:29.515Z,-7.47
2023-02-07T21:38:59.347Z,-7.61
2023-02-07T21:41:27.926Z,-7.34
2023-02-07T21:43:55.582Z,-7.29
2023-02-07T21:46:25.501Z,-7.29
2023-02-07T21:48:57.503Z,-7.32
2023-02-07T21:51:25.681Z,-7.68
2023-02-07T21:53:54.512Z,-7.71
2023-02-07T21:56:25.609Z,-7.49
2023-02-07T21:58:57.876Z,-7.60
2023-02-07T22:01:25.305Z,-7.82
2023-02-07T22:03:54.645Z,-7.62
2023-02-07T22:06:22.623Z,-8.01
2023-02-07T22:09:00.639Z,-7.93
2023-02-07T22:11:31.506Z,-7.94
2023-02-07T22:13:58.784Z,-7.89
2023-02-07T22:16:28.327Z,-8.04
2023-02-07T22:18:56.677Z,-7.81
2023-02-07T22:21:28.883Z,-7.94
2023-02-07T22:23:56.760Z,-7.97
2023-02-07T22:26:24.475Z,-8.00
2023-02-07T22:28:52.019Z,-7.89
2023-02-07T22:31:22.223Z,-7.85
2023-02-07T22:33:50.608Z,-7.99
2023-02-07T22:36:22.469Z,-7.96
2023-02-07T22:38:49.869Z,-7.88
2023-02-07T22:41:17.382Z,-7.97
2023-02-07T22:43:44.026Z,-8.09
2023-02-07T22:46:17.536Z,-7.94
2023-02-07T22:48:44.732Z,-8.03
2023-02-07T22:51:14.197Z,-8.18
2023-02-07T22:53:41.364Z,-8.22
2023-02-07T22:56:08.776Z,-8.38
2023-02-07T22:58:36.586Z,-8.13
2023-02-07T23:01:04.389Z,-8.16
2023-02-07T23:03:31.453Z,-8.18
2023-02-07T23:05:58.120Z,-8.49
2023-02-07T23:08:24.747Z,-8.55
2023-02-07T23:10:51.396Z,-8.32
2023-02-07T23:13:18.039Z,-8.55
2023-02-07T23:15:46.813Z,-8.68
2023-02-07T23:18:15.634Z,-8.75
2023-02-07T23:20:45.851Z,-8.65
2023-02-07T23:23:13.306Z,-8.73
2023-02-07T23:25:46.783Z,-8.61
2023-02-07T23:28:13.681Z,-8.85
2023-02-07T23:30:41.424Z,-8.81
2023-02-07T23:33:09.517Z,-8.51
2023-02-07T23:35:36.591Z,-8.83
2023-02-07T23:38:04.445Z,-8.90
2023-02-07T23:40:31.314Z,-8.83
2023-02-07T23:42:57.966Z,-9.07
2023-02-07T23:45:25.184Z,-9.24
2023-02-07T23:47:51.862Z,-8.77
2023-02-07T23:50:18.735Z,-9.02
2023-02-07T23:52:45.787Z,-8.88
2023-02-07T23:55:12.391Z,-8.68
2023-02-07T23:57:39.170Z,-8.70
